Decimomannu, Italy

2:33 PM CET on January 22, 2017 (GMT +0100)
Decimoputzu - Decimoputzu | | Change Station
Active Advisory: >>>

Elev 0 ft 39.34 °N, 8.91 °E | Updated 2 minutes ago

Partly Cloudy
Partly Cloudy
57.0 °F
Feels Like 57.0 °F
N
7.0
Wind Variable Wind from East
Gusts 25.3 mph

Today
High -- | Low -- °F
--% Chance of Precip.
Yesterday
High -- | Low -- °F
Precip. -- in
Pressure 29.89 in
Visibility 6.2 miles
Clouds Few 2000 ft
Dew Point 47 °F
Humidity 69%
Rainfall 0.00 in
Snow Depth Not available.
7:38 AM 5:32 PM
Waning Crescent, 26% visible
METAR LIEE 221320Z 14017KT 9999 FEW020 14/07 Q1012
Pressure 29.89 in
Visibility 6.2 miles
Clouds Few 2000 ft
Dew Point 47 °F
Humidity 69%
Rainfall 0.00 in
Snow Depth Not available.
7:38 AM 5:32 PM
Waning Crescent, 26% visible
METAR LIEE 221320Z 14017KT 9999 FEW020 14/07 Q1012

Get Your Daily Forecast Email!

Thanks for signing up!

Be on the lookout for a verification email in your inbox.

You'll start receiving the daily forecast at 8 AM.

×

10-Day Weather Forecast

×

Almanac

Astronomy

Jan. 22, 2017 Rise Set
Actual Time
Civil Twilight
Nautical Twilight
Astronomical Twilight
Moon
Length of Visible Light
Length of Day
Tomorrow will be .
, % of the Moon is Illuminated

Today's Extremes

Country Highs Country Lows

Community

WunderPhotos

Upload Photos

1,962,540 photos uploaded!

WunderBlog® & News

Nearby

Air Quality

  Air Quality AQ Index Pollutant
Not available.

Snow Depth

Station Depth Elevation

Earthquake Activity

City Distance Mag. Time & Date
Minimum magnitude displayed is 2.5.

Coastal Water Temperatures

Place Temperature

Stations

Nearby Weather Stations

Station Location Temp. Windchill Dew Point Humidity Wind Precip. Elev Updated Type